sensor_id;sensor_type;location;lat;lon;timestamp;P1;durP1;ratioP1;P2;durP2;ratioP2
34242;SDS011;20504;43.214;27.920;2022-07-05T01:47:16;9.27;;;5.93;;
34242;SDS011;20504;43.214;27.920;2022-07-05T01:58:55;19.33;;;6.18;;
34242;SDS011;20504;43.214;27.920;2022-07-05T02:01:53;23.40;;;7.65;;
34242;SDS011;20504;43.214;27.920;2022-07-05T02:27:02;16.95;;;6.55;;
34242;SDS011;20504;43.214;27.920;2022-07-05T02:29:58;16.10;;;7.70;;
34242;SDS011;20504;43.214;27.920;2022-07-05T02:35:42;26.77;;;9.05;;
34242;SDS011;20504;43.214;27.920;2022-07-05T02:38:26;20.08;;;8.68;;
34242;SDS011;20504;43.214;27.920;2022-07-05T02:43:35;19.80;;;9.20;;
34242;SDS011;20504;43.214;27.920;2022-07-05T02:46:06;21.58;;;8.73;;
34242;SDS011;20504;43.214;27.920;2022-07-05T02:51:10;29.05;;;9.82;;
34242;SDS011;20504;43.214;27.920;2022-07-05T02:53:41;28.08;;;10.75;;
34242;SDS011;20504;43.214;27.920;2022-07-05T02:56:13;23.75;;;11.18;;
34242;SDS011;20504;43.214;27.920;2022-07-05T02:58:44;25.67;;;12.85;;
34242;SDS011;20504;43.214;27.920;2022-07-05T03:01:19;21.17;;;11.80;;
34242;SDS011;20504;43.214;27.920;2022-07-05T03:03:45;29.80;;;12.02;;
34242;SDS011;20504;43.214;27.920;2022-07-05T03:06:14;21.67;;;10.73;;
34242;SDS011;20504;43.214;27.920;2022-07-05T03:08:42;16.35;;;10.73;;
34242;SDS011;20504;43.214;27.920;2022-07-05T03:11:31;22.48;;;11.18;;
34242;SDS011;20504;43.214;27.920;2022-07-05T03:14:08;14.85;;;10.18;;
34242;SDS011;20504;43.214;27.920;2022-07-05T03:16:38;21.60;;;10.02;;
34242;SDS011;20504;43.214;27.920;2022-07-05T03:19:17;16.55;;;9.68;;
34242;SDS011;20504;43.214;27.920;2022-07-05T03:21:58;21.75;;;10.50;;
34242;SDS011;20504;43.214;27.920;2022-07-05T03:24:33;24.10;;;10.45;;
34242;SDS011;20504;43.214;27.920;2022-07-05T06:10:09;13.77;;;6.15;;
34242;SDS011;20504;43.214;27.920;2022-07-05T07:02:29;6.07;;;2.78;;
34242;SDS011;20504;43.214;27.920;2022-07-05T07:05:42;5.60;;;2.42;;
34242;SDS011;20504;43.214;27.920;2022-07-05T07:27:06;6.15;;;2.80;;
34242;SDS011;20504;43.214;27.920;2022-07-05T07:29:37;12.85;;;4.20;;
34242;SDS011;20504;43.214;27.920;2022-07-05T07:37:34;6.88;;;2.72;;
34242;SDS011;20504;43.214;27.920;2022-07-05T07:40:18;6.50;;;2.65;;
34242;SDS011;20504;43.214;27.920;2022-07-05T07:42:52;5.50;;;2.50;;
34242;SDS011;20504;43.214;27.920;2022-07-05T07:45:18;7.13;;;2.60;;
34242;SDS011;20504;43.214;27.920;2022-07-05T07:50:10;5.53;;;2.90;;
34242;SDS011;20504;43.214;27.920;2022-07-05T07:52:37;10.40;;;3.55;;
34242;SDS011;20504;43.214;27.920;2022-07-05T07:55:27;8.30;;;3.38;;
34242;SDS011;20504;43.214;27.920;2022-07-05T07:58:03;7.30;;;2.80;;
34242;SDS011;20504;43.214;27.920;2022-07-05T08:00:31;5.05;;;3.15;;
34242;SDS011;20504;43.214;27.920;2022-07-05T08:03:00;10.65;;;2.85;;
34242;SDS011;20504;43.214;27.920;2022-07-05T08:05:30;17.20;;;3.25;;
34242;SDS011;20504;43.214;27.920;2022-07-05T08:07:55;7.32;;;3.33;;
34242;SDS011;20504;43.214;27.920;2022-07-05T08:10:33;5.10;;;2.58;;
34242;SDS011;20504;43.214;27.920;2022-07-05T08:13:19;8.80;;;2.67;;
34242;SDS011;20504;43.214;27.920;2022-07-05T08:15:48;11.35;;;3.20;;
34242;SDS011;20504;43.214;27.920;2022-07-05T08:18:15;9.43;;;3.17;;
34242;SDS011;20504;43.214;27.920;2022-07-05T08:21:04;5.47;;;2.33;;
34242;SDS011;20504;43.214;27.920;2022-07-05T08:23:48;5.68;;;2.50;;
34242;SDS011;20504;43.214;27.920;2022-07-05T08:26:15;8.20;;;2.60;;
34242;SDS011;20504;43.214;27.920;2022-07-05T08:28:40;5.15;;;2.28;;
34242;SDS011;20504;43.214;27.920;2022-07-05T08:31:05;10.27;;;3.23;;
34242;SDS011;20504;43.214;27.920;2022-07-05T08:33:31;7.03;;;2.30;;
34242;SDS011;20504;43.214;27.920;2022-07-05T08:35:57;13.23;;;2.77;;
34242;SDS011;20504;43.214;27.920;2022-07-05T08:38:22;6.33;;;2.70;;
34242;SDS011;20504;43.214;27.920;2022-07-05T08:40:49;6.50;;;2.70;;
34242;SDS011;20504;43.214;27.920;2022-07-05T08:43:15;5.93;;;2.58;;
34242;SDS011;20504;43.214;27.920;2022-07-05T08:45:42;10.73;;;2.37;;
34242;SDS011;20504;43.214;27.920;2022-07-05T08:48:07;4.80;;;2.30;;
34242;SDS011;20504;43.214;27.920;2022-07-05T08:50:33;4.25;;;2.47;;
34242;SDS011;20504;43.214;27.920;2022-07-05T08:53:00;8.30;;;2.15;;
34242;SDS011;20504;43.214;27.920;2022-07-05T08:55:27;6.18;;;2.45;;
34242;SDS011;20504;43.214;27.920;2022-07-05T08:57:55;5.80;;;2.80;;
34242;SDS011;20504;43.214;27.920;2022-07-05T09:00:28;5.55;;;2.75;;
34242;SDS011;20504;43.214;27.920;2022-07-05T09:03:02;3.83;;;2.88;;
34242;SDS011;20504;43.214;27.920;2022-07-05T09:08:33;7.95;;;2.78;;
34242;SDS011;20504;43.214;27.920;2022-07-05T09:13:55;6.13;;;2.42;;
34242;SDS011;20504;43.214;27.920;2022-07-05T09:16:24;8.90;;;3.05;;
34242;SDS011;20504;43.214;27.920;2022-07-05T09:19:06;6.38;;;2.30;;
34242;SDS011;20504;43.214;27.920;2022-07-05T09:21:36;7.22;;;2.40;;
34242;SDS011;20504;43.214;27.920;2022-07-05T09:26:44;6.07;;;2.63;;
34242;SDS011;20504;43.214;27.920;2022-07-05T09:29:56;8.40;;;2.22;;
34242;SDS011;20504;43.214;27.920;2022-07-05T09:32:24;4.78;;;2.47;;
34242;SDS011;20504;43.214;27.920;2022-07-05T09:34:50;6.55;;;2.78;;
34242;SDS011;20504;43.214;27.920;2022-07-05T09:37:16;6.03;;;3.13;;
34242;SDS011;20504;43.214;27.920;2022-07-05T09:40:04;5.70;;;2.63;;
34242;SDS011;20504;43.214;27.920;2022-07-05T09:42:48;7.20;;;2.65;;
34242;SDS011;20504;43.214;27.920;2022-07-05T09:45:21;5.60;;;2.50;;
34242;SDS011;20504;43.214;27.920;2022-07-05T09:47:46;5.60;;;3.20;;
34242;SDS011;20504;43.214;27.920;2022-07-05T09:50:32;7.43;;;2.63;;
34242;SDS011;20504;43.214;27.920;2022-07-05T09:53:00;6.28;;;2.63;;
34242;SDS011;20504;43.214;27.920;2022-07-05T09:55:33;7.25;;;2.50;;
34242;SDS011;20504;43.214;27.920;2022-07-05T09:58:25;6.30;;;2.50;;
34242;SDS011;20504;43.214;27.920;2022-07-05T10:00:53;6.72;;;3.22;;
34242;SDS011;20504;43.214;27.920;2022-07-05T10:05:52;9.18;;;4.45;;
34242;SDS011;20504;43.214;27.920;2022-07-05T10:13:50;7.27;;;2.70;;
34242;SDS011;20504;43.214;27.920;2022-07-05T10:16:19;9.00;;;3.03;;
34242;SDS011;20504;43.214;27.920;2022-07-05T10:19:00;5.55;;;2.85;;
34242;SDS011;20504;43.214;27.920;2022-07-05T10:21:59;4.13;;;2.87;;
34242;SDS011;20504;43.214;27.920;2022-07-05T10:38:41;6.13;;;2.50;;
34242;SDS011;20504;43.214;27.920;2022-07-05T10:46:32;3.72;;;1.92;;
34242;SDS011;20504;43.214;27.920;2022-07-05T10:49:14;3.60;;;2.33;;
34242;SDS011;20504;43.214;27.920;2022-07-05T10:52:21;4.13;;;2.50;;
34242;SDS011;20504;43.214;27.920;2022-07-05T10:57:37;5.30;;;2.30;;
34242;SDS011;20504;43.214;27.920;2022-07-05T11:00:09;9.10;;;2.53;;
34242;SDS011;20504;43.214;27.920;2022-07-05T11:03:06;6.40;;;2.40;;
34242;SDS011;20504;43.214;27.920;2022-07-05T11:05:34;7.88;;;3.00;;
34242;SDS011;20504;43.214;27.920;2022-07-05T11:08:00;4.18;;;2.15;;
34242;SDS011;20504;43.214;27.920;2022-07-05T11:10:29;4.90;;;2.75;;
34242;SDS011;20504;43.214;27.920;2022-07-05T11:12:57;9.00;;;2.85;;
34242;SDS011;20504;43.214;27.920;2022-07-05T11:15:26;7.60;;;2.67;;
34242;SDS011;20504;43.214;27.920;2022-07-05T11:18:13;5.45;;;2.08;;
34242;SDS011;20504;43.214;27.920;2022-07-05T11:20:41;5.15;;;2.17;;
34242;SDS011;20504;43.214;27.920;2022-07-05T11:23:11;7.68;;;2.20;;
34242;SDS011;20504;43.214;27.920;2022-07-05T11:25:37;6.70;;;2.47;;
34242;SDS011;20504;43.214;27.920;2022-07-05T11:28:06;6.60;;;2.65;;
34242;SDS011;20504;43.214;27.920;2022-07-05T11:33:26;6.32;;;2.47;;
34242;SDS011;20504;43.214;27.920;2022-07-05T11:35:51;6.35;;;2.55;;
34242;SDS011;20504;43.214;27.920;2022-07-05T11:38:17;7.30;;;2.33;;
34242;SDS011;20504;43.214;27.920;2022-07-05T11:43:33;4.13;;;2.03;;
34242;SDS011;20504;43.214;27.920;2022-07-05T11:45:59;8.73;;;2.47;;
34242;SDS011;20504;43.214;27.920;2022-07-05T11:48:27;6.05;;;2.20;;
34242;SDS011;20504;43.214;27.920;2022-07-05T11:50:54;5.18;;;2.30;;
34242;SDS011;20504;43.214;27.920;2022-07-05T11:53:26;2.90;;;1.88;;
34242;SDS011;20504;43.214;27.920;2022-07-05T11:55:57;7.80;;;2.22;;
34242;SDS011;20504;43.214;27.920;2022-07-05T12:01:26;7.50;;;2.20;;
34242;SDS011;20504;43.214;27.920;2022-07-05T12:03:55;5.65;;;1.88;;
34242;SDS011;20504;43.214;27.920;2022-07-05T12:06:21;2.83;;;2.22;;
34242;SDS011;20504;43.214;27.920;2022-07-05T12:08:46;6.97;;;2.25;;
34242;SDS011;20504;43.214;27.920;2022-07-05T12:11:12;6.07;;;1.70;;
34242;SDS011;20504;43.214;27.920;2022-07-05T12:17:18;6.82;;;2.08;;
34242;SDS011;20504;43.214;27.920;2022-07-05T12:19:47;7.13;;;2.13;;
34242;SDS011;20504;43.214;27.920;2022-07-05T12:22:12;5.43;;;1.58;;
34242;SDS011;20504;43.214;27.920;2022-07-05T12:24:38;12.98;;;2.00;;
34242;SDS011;20504;43.214;27.920;2022-07-05T12:27:03;2.67;;;1.60;;
34242;SDS011;20504;43.214;27.920;2022-07-05T12:29:29;5.25;;;1.80;;
34242;SDS011;20504;43.214;27.920;2022-07-05T12:31:58;5.00;;;1.70;;
34242;SDS011;20504;43.214;27.920;2022-07-05T12:34:23;9.23;;;1.70;;
34242;SDS011;20504;43.214;27.920;2022-07-05T12:36:49;1.77;;;1.67;;
34242;SDS011;20504;43.214;27.920;2022-07-05T12:39:16;2.92;;;2.00;;
34242;SDS011;20504;43.214;27.920;2022-07-05T12:41:42;3.95;;;1.50;;
34242;SDS011;20504;43.214;27.920;2022-07-05T12:44:07;3.13;;;1.77;;
34242;SDS011;20504;43.214;27.920;2022-07-05T12:46:39;4.50;;;1.77;;
34242;SDS011;20504;43.214;27.920;2022-07-05T12:49:05;4.35;;;1.73;;
34242;SDS011;20504;43.214;27.920;2022-07-05T12:51:34;3.30;;;1.90;;
34242;SDS011;20504;43.214;27.920;2022-07-05T12:54:00;1.70;;;1.60;;
34242;SDS011;20504;43.214;27.920;2022-07-05T12:56:51;6.20;;;1.63;;
34242;SDS011;20504;43.214;27.920;2022-07-05T12:59:35;4.20;;;1.90;;
34242;SDS011;20504;43.214;27.920;2022-07-05T13:02:01;4.45;;;2.58;;
34242;SDS011;20504;43.214;27.920;2022-07-05T13:04:26;3.90;;;2.60;;
34242;SDS011;20504;43.214;27.920;2022-07-05T13:06:52;4.80;;;1.50;;
34242;SDS011;20504;43.214;27.920;2022-07-05T13:14:32;3.25;;;1.50;;
34242;SDS011;20504;43.214;27.920;2022-07-05T13:16:57;7.07;;;1.67;;
34242;SDS011;20504;43.214;27.920;2022-07-05T13:19:22;4.32;;;1.85;;
34242;SDS011;20504;43.214;27.920;2022-07-05T13:21:48;3.78;;;1.58;;
34242;SDS011;20504;43.214;27.920;2022-07-05T13:24:13;6.10;;;1.75;;
34242;SDS011;20504;43.214;27.920;2022-07-05T13:26:38;5.82;;;2.10;;
34242;SDS011;20504;43.214;27.920;2022-07-05T13:29:04;6.50;;;1.75;;
34242;SDS011;20504;43.214;27.920;2022-07-05T13:31:29;5.47;;;2.80;;
34242;SDS011;20504;43.214;27.920;2022-07-05T13:33:55;3.35;;;1.50;;
34242;SDS011;20504;43.214;27.920;2022-07-05T13:36:21;3.00;;;1.55;;
34242;SDS011;20504;43.214;27.920;2022-07-05T13:38:46;5.97;;;1.60;;
34242;SDS011;20504;43.214;27.920;2022-07-05T13:41:12;4.43;;;1.98;;
34242;SDS011;20504;43.214;27.920;2022-07-05T13:43:37;5.00;;;1.70;;
34242;SDS011;20504;43.214;27.920;2022-07-05T13:46:03;6.63;;;1.90;;
34242;SDS011;20504;43.214;27.920;2022-07-05T13:48:29;4.57;;;2.10;;
34242;SDS011;20504;43.214;27.920;2022-07-05T13:50:54;5.28;;;1.85;;
34242;SDS011;20504;43.214;27.920;2022-07-05T13:53:19;5.38;;;1.40;;
34242;SDS011;20504;43.214;27.920;2022-07-05T13:55:45;9.27;;;1.70;;
34242;SDS011;20504;43.214;27.920;2022-07-05T13:58:10;2.38;;;1.50;;
34242;SDS011;20504;43.214;27.920;2022-07-05T14:00:36;3.58;;;1.70;;
34242;SDS011;20504;43.214;27.920;2022-07-05T14:03:01;4.93;;;1.60;;
34242;SDS011;20504;43.214;27.920;2022-07-05T14:05:29;5.07;;;2.00;;
34242;SDS011;20504;43.214;27.920;2022-07-05T14:07:54;3.03;;;1.88;;
34242;SDS011;20504;43.214;27.920;2022-07-05T14:10:19;8.90;;;1.97;;
34242;SDS011;20504;43.214;27.920;2022-07-05T14:12:45;7.68;;;2.15;;
34242;SDS011;20504;43.214;27.920;2022-07-05T14:15:10;3.42;;;1.70;;
34242;SDS011;20504;43.214;27.920;2022-07-05T14:17:35;2.05;;;1.67;;
34242;SDS011;20504;43.214;27.920;2022-07-05T14:20:01;3.50;;;1.73;;
34242;SDS011;20504;43.214;27.920;2022-07-05T14:22:26;5.40;;;2.60;;
34242;SDS011;20504;43.214;27.920;2022-07-05T14:24:51;4.45;;;1.55;;
34242;SDS011;20504;43.214;27.920;2022-07-05T14:27:17;2.53;;;1.50;;
34242;SDS011;20504;43.214;27.920;2022-07-05T14:29:42;8.77;;;1.85;;
34242;SDS011;20504;43.214;27.920;2022-07-05T14:32:07;2.72;;;1.60;;
34242;SDS011;20504;43.214;27.920;2022-07-05T14:34:33;3.60;;;1.35;;
34242;SDS011;20504;43.214;27.920;2022-07-05T14:37:01;1.85;;;1.50;;
34242;SDS011;20504;43.214;27.920;2022-07-05T14:39:26;2.90;;;2.10;;
34242;SDS011;20504;43.214;27.920;2022-07-05T14:41:52;6.45;;;1.60;;
34242;SDS011;20504;43.214;27.920;2022-07-05T14:44:17;5.53;;;1.75;;
34242;SDS011;20504;43.214;27.920;2022-07-05T14:46:42;3.45;;;1.80;;
34242;SDS011;20504;43.214;27.920;2022-07-05T14:49:08;5.28;;;1.77;;
34242;SDS011;20504;43.214;27.920;2022-07-05T14:51:33;5.82;;;1.65;;
34242;SDS011;20504;43.214;27.920;2022-07-05T14:53:58;4.13;;;1.88;;
34242;SDS011;20504;43.214;27.920;2022-07-05T14:56:23;6.60;;;2.20;;
34242;SDS011;20504;43.214;27.920;2022-07-05T14:58:49;3.47;;;1.50;;
34242;SDS011;20504;43.214;27.920;2022-07-05T15:01:14;2.47;;;1.45;;
34242;SDS011;20504;43.214;27.920;2022-07-05T15:03:40;6.65;;;1.80;;
34242;SDS011;20504;43.214;27.920;2022-07-05T15:06:05;6.47;;;1.70;;
34242;SDS011;20504;43.214;27.920;2022-07-05T15:08:30;9.23;;;1.90;;
34242;SDS011;20504;43.214;27.920;2022-07-05T15:10:56;5.00;;;1.80;;
34242;SDS011;20504;43.214;27.920;2022-07-05T15:13:22;3.03;;;1.65;;
34242;SDS011;20504;43.214;27.920;2022-07-05T15:15:50;2.50;;;1.40;;
34242;SDS011;20504;43.214;27.920;2022-07-05T15:18:15;4.68;;;1.80;;
34242;SDS011;20504;43.214;27.920;2022-07-05T15:20:41;3.20;;;1.70;;
34242;SDS011;20504;43.214;27.920;2022-07-05T15:23:06;4.30;;;1.60;;
34242;SDS011;20504;43.214;27.920;2022-07-05T15:25:31;4.13;;;1.60;;
34242;SDS011;20504;43.214;27.920;2022-07-05T15:27:57;5.43;;;1.90;;
34242;SDS011;20504;43.214;27.920;2022-07-05T15:30:22;5.10;;;2.63;;
34242;SDS011;20504;43.214;27.920;2022-07-05T15:32:48;12.30;;;2.30;;
34242;SDS011;20504;43.214;27.920;2022-07-05T15:35:13;4.85;;;2.10;;
34242;SDS011;20504;43.214;27.920;2022-07-05T15:37:40;7.68;;;1.65;;
34242;SDS011;20504;43.214;27.920;2022-07-05T15:40:06;5.60;;;2.08;;
34242;SDS011;20504;43.214;27.920;2022-07-05T15:42:31;5.70;;;3.15;;
34242;SDS011;20504;43.214;27.920;2022-07-05T15:44:57;4.25;;;2.00;;
34242;SDS011;20504;43.214;27.920;2022-07-05T15:47:22;5.88;;;2.13;;
34242;SDS011;20504;43.214;27.920;2022-07-05T15:49:49;2.45;;;1.80;;
34242;SDS011;20504;43.214;27.920;2022-07-05T15:52:14;3.33;;;1.90;;
34242;SDS011;20504;43.214;27.920;2022-07-05T15:54:42;2.42;;;2.20;;
34242;SDS011;20504;43.214;27.920;2022-07-05T15:57:09;8.45;;;2.45;;
34242;SDS011;20504;43.214;27.920;2022-07-05T15:59:36;4.03;;;2.00;;
34242;SDS011;20504;43.214;27.920;2022-07-05T16:02:01;6.93;;;2.30;;
34242;SDS011;20504;43.214;27.920;2022-07-05T16:04:29;15.20;;;2.60;;
34242;SDS011;20504;43.214;27.920;2022-07-05T16:06:56;2.90;;;1.80;;
34242;SDS011;20504;43.214;27.920;2022-07-05T16:09:23;3.63;;;2.00;;
34242;SDS011;20504;43.214;27.920;2022-07-05T16:11:52;9.15;;;2.33;;
34242;SDS011;20504;43.214;27.920;2022-07-05T16:14:48;4.97;;;2.42;;
34242;SDS011;20504;43.214;27.920;2022-07-05T16:17:22;8.70;;;2.53;;
34242;SDS011;20504;43.214;27.920;2022-07-05T16:19:49;3.00;;;2.43;;
34242;SDS011;20504;43.214;27.920;2022-07-05T16:22:15;6.57;;;2.38;;
34242;SDS011;20504;43.214;27.920;2022-07-05T16:24:40;5.27;;;3.20;;
34242;SDS011;20504;43.214;27.920;2022-07-05T16:27:09;13.77;;;6.10;;
34242;SDS011;20504;43.214;27.920;2022-07-05T16:29:35;12.15;;;5.32;;
34242;SDS011;20504;43.214;27.920;2022-07-05T16:32:02;13.30;;;6.53;;
34242;SDS011;20504;43.214;27.920;2022-07-05T16:34:30;13.32;;;4.45;;
34242;SDS011;20504;43.214;27.920;2022-07-05T16:36:55;4.50;;;2.25;;
34242;SDS011;20504;43.214;27.920;2022-07-05T16:39:25;3.85;;;2.00;;
34242;SDS011;20504;43.214;27.920;2022-07-05T16:42:21;5.45;;;2.28;;
34242;SDS011;20504;43.214;27.920;2022-07-05T16:44:49;4.95;;;1.85;;
34242;SDS011;20504;43.214;27.920;2022-07-05T16:47:15;5.73;;;2.13;;
34242;SDS011;20504;43.214;27.920;2022-07-05T16:49:41;7.30;;;2.10;;
34242;SDS011;20504;43.214;27.920;2022-07-05T16:52:06;5.83;;;2.13;;
34242;SDS011;20504;43.214;27.920;2022-07-05T16:54:36;6.05;;;2.80;;
34242;SDS011;20504;43.214;27.920;2022-07-05T16:57:01;5.93;;;2.40;;
34242;SDS011;20504;43.214;27.920;2022-07-05T16:59:38;5.88;;;2.25;;
34242;SDS011;20504;43.214;27.920;2022-07-05T17:02:03;7.57;;;2.15;;
34242;SDS011;20504;43.214;27.920;2022-07-05T17:04:31;4.63;;;2.40;;
34242;SDS011;20504;43.214;27.920;2022-07-05T17:06:58;6.95;;;3.60;;
34242;SDS011;20504;43.214;27.920;2022-07-05T17:09:25;6.72;;;3.10;;
34242;SDS011;20504;43.214;27.920;2022-07-05T17:14:18;8.35;;;2.47;;
34242;SDS011;20504;43.214;27.920;2022-07-05T17:16:50;8.57;;;2.20;;
34242;SDS011;20504;43.214;27.920;2022-07-05T17:19:17;6.72;;;2.72;;
34242;SDS011;20504;43.214;27.920;2022-07-05T17:24:10;31.15;;;16.05;;
34242;SDS011;20504;43.214;27.920;2022-07-05T17:29:04;6.93;;;4.07;;
34242;SDS011;20504;43.214;27.920;2022-07-05T17:31:31;7.82;;;3.00;;
34242;SDS011;20504;43.214;27.920;2022-07-05T17:33:59;4.05;;;2.85;;
34242;SDS011;20504;43.214;27.920;2022-07-05T17:39:16;11.43;;;3.75;;
34242;SDS011;20504;43.214;27.920;2022-07-05T17:41:54;5.90;;;2.70;;
34242;SDS011;20504;43.214;27.920;2022-07-05T17:44:20;6.67;;;3.53;;
34242;SDS011;20504;43.214;27.920;2022-07-05T17:46:45;20.73;;;10.27;;
34242;SDS011;20504;43.214;27.920;2022-07-05T17:49:23;9.23;;;5.65;;
34242;SDS011;20504;43.214;27.920;2022-07-05T17:57:02;8.88;;;4.05;;
34242;SDS011;20504;43.214;27.920;2022-07-05T18:02:08;4.47;;;2.40;;
34242;SDS011;20504;43.214;27.920;2022-07-05T18:04:39;4.15;;;2.30;;
34242;SDS011;20504;43.214;27.920;2022-07-05T18:07:08;8.48;;;3.53;;
34242;SDS011;20504;43.214;27.920;2022-07-05T18:09:40;12.70;;;4.88;;
34242;SDS011;20504;43.214;27.920;2022-07-05T18:12:05;14.93;;;5.90;;
34242;SDS011;20504;43.214;27.920;2022-07-05T18:16:59;13.18;;;9.57;;
34242;SDS011;20504;43.214;27.920;2022-07-05T18:19:26;13.95;;;6.25;;
34242;SDS011;20504;43.214;27.920;2022-07-05T18:21:55;12.73;;;6.22;;
34242;SDS011;20504;43.214;27.920;2022-07-05T18:24:41;15.60;;;6.93;;
34242;SDS011;20504;43.214;27.920;2022-07-05T18:27:14;11.13;;;5.78;;
34242;SDS011;20504;43.214;27.920;2022-07-05T18:29:40;12.37;;;4.63;;
34242;SDS011;20504;43.214;27.920;2022-07-05T18:32:10;8.65;;;4.07;;
34242;SDS011;20504;43.214;27.920;2022-07-05T18:34:38;8.50;;;3.70;;
34242;SDS011;20504;43.214;27.920;2022-07-05T18:37:07;13.63;;;5.60;;
34242;SDS011;20504;43.214;27.920;2022-07-05T18:39:34;15.10;;;4.90;;
34242;SDS011;20504;43.214;27.920;2022-07-05T18:42:13;11.07;;;4.22;;
34242;SDS011;20504;43.214;27.920;2022-07-05T18:44:54;11.13;;;4.15;;
34242;SDS011;20504;43.214;27.920;2022-07-05T18:47:25;13.02;;;5.20;;
34242;SDS011;20504;43.214;27.920;2022-07-05T18:49:50;17.33;;;5.60;;
34242;SDS011;20504;43.214;27.920;2022-07-05T18:52:16;12.83;;;5.87;;
34242;SDS011;20504;43.214;27.920;2022-07-05T18:54:49;14.88;;;5.93;;
34242;SDS011;20504;43.214;27.920;2022-07-05T18:57:15;10.30;;;4.78;;
34242;SDS011;20504;43.214;27.920;2022-07-05T19:02:43;20.45;;;5.22;;
34242;SDS011;20504;43.214;27.920;2022-07-05T19:05:09;17.25;;;5.28;;
34242;SDS011;20504;43.214;27.920;2022-07-05T19:07:40;14.60;;;5.03;;
34242;SDS011;20504;43.214;27.920;2022-07-05T19:10:24;14.95;;;5.07;;
34242;SDS011;20504;43.214;27.920;2022-07-05T19:13:08;10.32;;;4.75;;
34242;SDS011;20504;43.214;27.920;2022-07-05T19:15:52;12.85;;;5.18;;
34242;SDS011;20504;43.214;27.920;2022-07-05T19:18:18;12.50;;;5.82;;
34242;SDS011;20504;43.214;27.920;2022-07-05T19:20:43;17.20;;;7.43;;
34242;SDS011;20504;43.214;27.920;2022-07-05T19:23:08;20.23;;;7.27;;
34242;SDS011;20504;43.214;27.920;2022-07-05T19:25:34;17.17;;;7.43;;
34242;SDS011;20504;43.214;27.920;2022-07-05T19:28:00;14.05;;;6.45;;
34242;SDS011;20504;43.214;27.920;2022-07-05T19:30:25;13.00;;;6.20;;
34242;SDS011;20504;43.214;27.920;2022-07-05T19:32:51;9.43;;;5.43;;
34242;SDS011;20504;43.214;27.920;2022-07-05T19:35:16;17.33;;;5.60;;
34242;SDS011;20504;43.214;27.920;2022-07-05T19:37:42;12.18;;;5.40;;
34242;SDS011;20504;43.214;27.920;2022-07-05T19:40:09;14.88;;;6.20;;
34242;SDS011;20504;43.214;27.920;2022-07-05T19:42:35;14.13;;;4.80;;
34242;SDS011;20504;43.214;27.920;2022-07-05T19:47:26;13.05;;;4.38;;
34242;SDS011;20504;43.214;27.920;2022-07-05T19:49:51;10.97;;;6.67;;
34242;SDS011;20504;43.214;27.920;2022-07-05T19:52:17;10.63;;;5.77;;
34242;SDS011;20504;43.214;27.920;2022-07-05T19:54:45;10.07;;;4.40;;
34242;SDS011;20504;43.214;27.920;2022-07-05T19:57:12;10.82;;;4.53;;
34242;SDS011;20504;43.214;27.920;2022-07-05T19:59:37;6.57;;;4.53;;
34242;SDS011;20504;43.214;27.920;2022-07-05T20:02:03;13.13;;;4.50;;
34242;SDS011;20504;43.214;27.920;2022-07-05T20:06:54;6.80;;;3.78;;
34242;SDS011;20504;43.214;27.920;2022-07-05T20:09:21;9.63;;;4.00;;
34242;SDS011;20504;43.214;27.920;2022-07-05T20:11:46;10.30;;;4.43;;
34242;SDS011;20504;43.214;27.920;2022-07-05T20:16:53;11.05;;;4.53;;
34242;SDS011;20504;43.214;27.920;2022-07-05T20:19:18;13.53;;;4.87;;
34242;SDS011;20504;43.214;27.920;2022-07-05T20:21:44;13.83;;;6.87;;
34242;SDS011;20504;43.214;27.920;2022-07-05T20:24:09;12.47;;;4.43;;
34242;SDS011;20504;43.214;27.920;2022-07-05T20:26:35;11.73;;;4.30;;
34242;SDS011;20504;43.214;27.920;2022-07-05T20:29:01;8.32;;;3.78;;
34242;SDS011;20504;43.214;27.920;2022-07-05T20:31:26;7.90;;;3.83;;
34242;SDS011;20504;43.214;27.920;2022-07-05T20:33:52;10.87;;;3.57;;
34242;SDS011;20504;43.214;27.920;2022-07-05T20:36:17;17.97;;;8.57;;
34242;SDS011;20504;43.214;27.920;2022-07-05T20:38:44;34.60;;;19.38;;
34242;SDS011;20504;43.214;27.920;2022-07-05T20:41:09;83.40;;;44.37;;
34242;SDS011;20504;43.214;27.920;2022-07-05T20:43:35;97.40;;;51.63;;
34242;SDS011;20504;43.214;27.920;2022-07-05T20:46:01;115.77;;;63.90;;
34242;SDS011;20504;43.214;27.920;2022-07-05T20:48:29;125.57;;;71.80;;
34242;SDS011;20504;43.214;27.920;2022-07-05T20:51:11;111.15;;;61.00;;
34242;SDS011;20504;43.214;27.920;2022-07-05T20:53:37;70.68;;;43.58;;
34242;SDS011;20504;43.214;27.920;2022-07-05T20:56:06;59.53;;;38.58;;
34242;SDS011;20504;43.214;27.920;2022-07-05T20:58:33;104.30;;;71.37;;
34242;SDS011;20504;43.214;27.920;2022-07-05T21:01:02;184.48;;;120.40;;
34242;SDS011;20504;43.214;27.920;2022-07-05T21:03:48;171.75;;;116.88;;
34242;SDS011;20504;43.214;27.920;2022-07-05T21:06:37;138.85;;;94.65;;
34242;SDS011;20504;43.214;27.920;2022-07-05T21:09:05;121.70;;;85.60;;
34242;SDS011;20504;43.214;27.920;2022-07-05T21:12:01;117.78;;;86.15;;
34242;SDS011;20504;43.214;27.920;2022-07-05T21:14:35;96.65;;;71.18;;
34242;SDS011;20504;43.214;27.920;2022-07-05T21:17:08;82.00;;;53.05;;
34242;SDS011;20504;43.214;27.920;2022-07-05T21:20:08;38.25;;;27.13;;
34242;SDS011;20504;43.214;27.920;2022-07-05T21:22:35;28.00;;;19.00;;
34242;SDS011;20504;43.214;27.920;2022-07-05T21:25:00;25.30;;;12.90;;
34242;SDS011;20504;43.214;27.920;2022-07-05T21:27:26;22.53;;;11.20;;
34242;SDS011;20504;43.214;27.920;2022-07-05T21:29:54;29.75;;;17.75;;
34242;SDS011;20504;43.214;27.920;2022-07-05T21:32:24;39.38;;;21.08;;
34242;SDS011;20504;43.214;27.920;2022-07-05T21:34:54;53.30;;;26.42;;
34242;SDS011;20504;43.214;27.920;2022-07-05T21:37:23;43.40;;;24.63;;
34242;SDS011;20504;43.214;27.920;2022-07-05T21:40:08;43.72;;;21.63;;
34242;SDS011;20504;43.214;27.920;2022-07-05T21:42:35;38.92;;;18.17;;
34242;SDS011;20504;43.214;27.920;2022-07-05T21:45:00;30.53;;;13.13;;
34242;SDS011;20504;43.214;27.920;2022-07-05T21:47:28;24.05;;;11.75;;
34242;SDS011;20504;43.214;27.920;2022-07-05T21:49:53;16.80;;;10.07;;
34242;SDS011;20504;43.214;27.920;2022-07-05T21:52:23;22.50;;;9.27;;
34242;SDS011;20504;43.214;27.920;2022-07-05T21:54:49;16.00;;;9.02;;
34242;SDS011;20504;43.214;27.920;2022-07-05T21:57:15;15.90;;;8.13;;
34242;SDS011;20504;43.214;27.920;2022-07-05T21:59:49;11.55;;;6.72;;
34242;SDS011;20504;43.214;27.920;2022-07-05T22:02:34;13.18;;;6.63;;
34242;SDS011;20504;43.214;27.920;2022-07-05T22:05:18;15.85;;;7.60;;
34242;SDS011;20504;43.214;27.920;2022-07-05T22:07:45;15.47;;;5.77;;
34242;SDS011;20504;43.214;27.920;2022-07-05T22:10:14;15.65;;;6.13;;
34242;SDS011;20504;43.214;27.920;2022-07-05T22:12:39;12.80;;;5.40;;
34242;SDS011;20504;43.214;27.920;2022-07-05T22:15:04;10.03;;;4.77;;
34242;SDS011;20504;43.214;27.920;2022-07-05T22:17:30;13.60;;;5.60;;
34242;SDS011;20504;43.214;27.920;2022-07-05T22:19:55;11.10;;;5.53;;
34242;SDS011;20504;43.214;27.920;2022-07-05T22:22:20;11.13;;;4.97;;
34242;SDS011;20504;43.214;27.920;2022-07-05T22:24:46;9.50;;;4.77;;
34242;SDS011;20504;43.214;27.920;2022-07-05T22:27:11;7.20;;;4.73;;
34242;SDS011;20504;43.214;27.920;2022-07-05T22:29:36;13.40;;;5.73;;
34242;SDS011;20504;43.214;27.920;2022-07-05T22:32:02;14.40;;;6.17;;
34242;SDS011;20504;43.214;27.920;2022-07-05T22:34:27;13.33;;;5.90;;
34242;SDS011;20504;43.214;27.920;2022-07-05T22:36:52;13.70;;;6.67;;